No particular awareness of the weather is required.    There are no Weather-warnings


Meteo18 Weather Cam more information Meteo18 Weather Cam


Thunder radar more information blitzortung!


Rain radar more information rain snow radar


Visit our other weather sites:

Template documentation
and downloads

And another site



Weather Underground History page Text

Daily Summary for September 16, 2017 Units:  English    Metric   Both
« Previous Day
Next Day »
Daily Weekly Monthly Yearly Custom
  High: Low: Average:
Temperature: TemperatureC °F 6.2 °F 9.7 °F
Dew Point: DewpointC °F 5.5 °F 8 °F
Humidity: Humidity % 73 % 89 %
Wind Speed: WindSpeedKMH mph 0.0 mph 1.2 mph
Wind Gust: WindSpeedGustKMH mph - -
Wind:- - SSW
Pressure: PressurehPa in 1012.8 in -
Precipitation: 11.2 in    
Historical Graphs
 
 
Tabular Data for September 16, 2017
Time Temperature Dew Point Pressure Wind Wind Speed Wind Gust Humidity Rainfall Rate (Hourly)
TemperatureC °F DewpointC °F PressurehPa in Calm     Humidity % HourlyPrecipMM in
00:02 9.3 °F 7.6 °F 1014.8 in Calm   3.2 mph 89 % 0.0 in
00:07 9.3 °F 7.6 °F 1014.8 in Calm   3.2 mph 89 % 0.0 in
00:12 9.1 °F 7.4 °F 1014.8 in Calm   1.6 mph 89 % 0.0 in
00:17 9.0 °F 7.4 °F 1014.8 in Calm   1.6 mph 90 % 0.0 in
00:22 8.8 °F 7.2 °F 1014.8 in WNW 3.2 mph 3.2 mph 90 % 0.0 in
00:32 8.8 °F 7.4 °F 1014.4 in Calm   3.2 mph 91 % 0.0 in
00:42 8.7 °F 7.2 °F 1014.4 in Calm   3.2 mph 90 % 0.0 in
00:52 8.7 °F 7.3 °F 1014.4 in Calm   1.6 mph 91 % 0.0 in
00:57 8.7 °F 7.3 °F 1014.4 in Calm   1.6 mph 91 % 0.0 in
01:02 8.7 °F 7.3 °F 1014.4 in Calm   1.6 mph 91 % 0.0 in
01:07 8.7 °F 7.3 °F 1014.4 in Calm     91 % 0.0 in
01:12 8.7 °F 7.3 °F 1014.4 in Calm     91 % 0.0 in
01:17 8.7 °F 7.3 °F 1014.4 in Calm   1.6 mph 91 % 0.0 in
01:22 8.7 °F 7.3 °F 1014.4 in Calm   1.6 mph 91 % 0.0 in
01:27 8.7 °F 7.3 °F 1014.1 in Calm   1.6 mph 91 % 0.0 in
01:32 8.7 °F 7.3 °F 1014.1 in Calm   1.6 mph 91 % 0.0 in
01:37 8.7 °F 7.3 °F 1014.1 in Calm   1.6 mph 91 % 0.0 in
01:42 8.7 °F 7.3 °F 1014.1 in Calm     91 % 0.0 in
01:47 8.7 °F 7.3 °F 1014.1 in Calm     91 % 0.0 in
01:52 8.7 °F 7.3 °F 1014.1 in Calm     91 % 0.0 in
01:57 8.7 °F 7.3 °F 1014.1 in Calm   1.6 mph 91 % 0.0 in
02:02 8.6 °F 7.2 °F 1014.1 in Calm   1.6 mph 91 % 0.0 in
02:07 8.6 °F 7.2 °F 1014.1 in Calm   1.6 mph 91 % 0.0 in
02:12 8.4 °F 7.0 °F 1014.1 in Calm   1.6 mph 91 % 0.0 in
02:17 8.3 °F 7.1 °F 1014.1 in Calm   1.6 mph 92 % 0.0 in
02:22 8.2 °F 7.0 °F 1014.1 in Calm   1.6 mph 92 % 0.0 in
02:32 8.1 °F 6.9 °F 1013.8 in Calm     92 % 0.0 in
02:37 7.9 °F 6.7 °F 1013.8 in Calm     92 % 0.0 in
02:42 7.9 °F 6.8 °F 1013.8 in Calm   1.6 mph 93 % 0.0 in
02:47 7.8 °F 6.7 °F 1013.8 in Calm   1.6 mph 93 % 0.0 in
02:52 8.0 °F 6.9 °F 1013.8 in Calm   1.6 mph 93 % 0.0 in
02:57 7.9 °F 6.8 °F 1013.8 in Calm   1.6 mph 93 % 0.0 in
03:02 7.8 °F 6.7 °F 1013.8 in Calm   1.6 mph 93 % 0.0 in
03:07 7.7 °F 6.6 °F 1013.8 in Calm   1.6 mph 93 % 0.0 in
03:12 7.6 °F 6.5 °F 1013.8 in Calm   1.6 mph 93 % 0.0 in
03:17 7.4 °F 6.3 °F 1013.8 in Calm   1.6 mph 93 % 0.0 in
03:22 7.6 °F 6.7 °F 1013.8 in Calm   1.6 mph 94 % 0.0 in
03:27 7.6 °F 6.7 °F 1013.4 in Calm     94 % 0.0 in
03:32 7.5 °F 6.6 °F 1013.4 in Calm     94 % 0.0 in
03:37 7.6 °F 6.7 °F 1013.4 in Calm     94 % 0.0 in
03:42 7.4 °F 6.5 °F 1013.4 in Calm     94 % 0.0 in
03:47 7.3 °F 6.4 °F 1013.4 in North 1.6 mph 3.2 mph 94 % 0.0 in
03:52 7.2 °F 6.3 °F 1013.4 in North 3.2 mph 4.8 mph 94 % 0.0 in
03:57 7.1 °F 6.2 °F 1013.4 in Calm   4.8 mph 94 % 0.0 in
04:02 6.9 °F 6.0 °F 1013.4 in Calm   4.8 mph 94 % 0.0 in
04:07 6.8 °F 5.9 °F 1013.4 in Calm   4.8 mph 94 % 0.0 in
04:12 6.9 °F 6.0 °F 1013.1 in Calm   1.6 mph 94 % 0.0 in
04:17 6.9 °F 6.0 °F 1013.1 in Calm   1.6 mph 94 % 0.0 in
04:22 6.7 °F 5.8 °F 1013.4 in Calm   1.6 mph 94 % 0.0 in
04:27 6.7 °F 6.0 °F 1013.4 in Calm   1.6 mph 95 % 0.0 in
04:32 6.7 °F 5.8 °F 1013.4 in Calm   1.6 mph 94 % 0.0 in
04:37 6.4 °F 5.5 °F 1013.4 in Calm     94 % 0.0 in
04:42 6.6 °F 5.9 °F 1013.4 in Calm     95 % 0.0 in
04:47 6.5 °F 5.8 °F 1013.4 in Calm     95 % 0.0 in
04:52 6.6 °F 5.9 °F 1013.1 in Calm     95 % 0.0 in
05:02 6.7 °F 6.0 °F 1013.1 in Calm     95 % 0.0 in
05:07 6.4 °F 5.5 °F 1013.1 in Calm   1.6 mph 94 % 0.0 in
05:12 6.3 °F 5.6 °F 1013.1 in Calm   1.6 mph 95 % 0.0 in
05:17 6.2 °F 5.5 °F 1013.1 in Calm   1.6 mph 95 % 0.0 in
05:22 6.2 °F 5.5 °F 1013.1 in Calm   1.6 mph 95 % 0.0 in
05:32 6.2 °F 5.5 °F 1013.1 in Calm     95 % 0.0 in
05:37 6.2 °F 5.5 °F 1013.1 in Calm     95 % 0.0 in
05:42 6.2 °F 5.5 °F 1013.1 in Calm   1.6 mph 95 % 0.0 in
05:47 6.2 °F 5.5 °F 1013.1 in Calm   1.6 mph 95 % 0.0 in
05:52 6.3 °F 5.6 °F 1013.1 in Calm   1.6 mph 95 % 0.0 in
05:57 6.3 °F 5.6 °F 1013.1 in Calm     95 % 0.0 in
06:02 6.4 °F 5.7 °F 1013.1 in Calm   1.6 mph 95 % 0.0 in
06:12 6.4 °F 5.7 °F 1013.1 in Calm   1.6 mph 95 % 0.0 in
06:17 6.3 °F 5.6 °F 1012.8 in Calm     95 % 0.0 in
06:22 6.3 °F 5.6 °F 1012.8 in Calm     95 % 0.0 in
06:32 6.3 °F 5.6 °F 1012.8 in Calm     95 % 0.0 in
06:42 6.2 °F 5.5 °F 1012.8 in Calm     95 % 0.0 in
06:47 6.2 °F 5.5 °F 1012.8 in Calm     95 % 0.0 in
06:52 6.2 °F 5.5 °F 1012.8 in Calm     95 % 0.0 in
07:02 6.4 °F 5.8 °F 1012.8 in Calm     96 % 0.0 in
07:12 6.4 °F 5.8 °F 1012.8 in Calm   1.6 mph 96 % 0.0 in
07:17 6.5 °F 5.9 °F 1012.8 in Calm   1.6 mph 96 % 0.0 in
07:22 6.6 °F 6.0 °F 1012.8 in Calm   1.6 mph 96 % 0.0 in
07:32 6.6 °F 6.0 °F 1013.1 in Calm   1.6 mph 96 % 0.0 in
07:42 6.7 °F 6.1 °F 1013.1 in Calm   1.6 mph 96 % 0.0 in
07:47 6.8 °F 6.2 °F 1013.1 in Calm   1.6 mph 96 % 0.0 in
08:02 7.2 °F 6.6 °F 1013.1 in South 1.6 mph 3.2 mph 96 % 0.0 in
08:12 7.2 °F 6.6 °F 1013.1 in South 1.6 mph 4.8 mph 96 % 0.0 in
08:17 7.4 °F 6.8 °F 1013.1 in SSE 1.6 mph 4.8 mph 96 % 0.0 in
08:22 7.6 °F 7.0 °F 1013.1 in Calm   3.2 mph 96 % 0.0 in
08:27 7.8 °F 7.2 °F 1013.1 in Calm   3.2 mph 96 % 0.0 in
08:32 8.1 °F 7.5 °F 1013.1 in SSE 1.6 mph 3.2 mph 96 % 0.0 in
08:42 8.5 °F 7.9 °F 1013.1 in SSE 1.6 mph 4.8 mph 96 % 0.0 in
08:47 8.7 °F 8.1 °F 1013.1 in Calm   6.4 mph 96 % 0.0 in
08:52 8.8 °F 8.0 °F 1013.1 in Calm   6.4 mph 95 % 0.0 in
08:57 8.9 °F 8.1 °F 1013.1 in SSW 1.6 mph 6.4 mph 95 % 0.0 in
09:02 9.0 °F 8.2 °F 1013.1 in South 1.6 mph 6.4 mph 95 % 0.0 in
09:12 9.2 °F 8.4 °F 1013.4 in Calm   6.4 mph 95 % 0.0 in
09:17 9.3 °F 8.4 °F 1013.4 in SW 3.2 mph 6.4 mph 94 % 0.0 in
09:22 9.4 °F 8.5 °F 1013.4 in SW 3.2 mph 6.4 mph 94 % 0.0 in
09:32 9.7 °F 8.6 °F 1013.4 in Calm   8.0 mph 93 % 0.0 in
09:37 10.1 °F 8.9 °F 1013.4 in SW 1.6 mph 8.0 mph 92 % 0.0 in
09:42 10.3 °F 8.9 °F 1013.4 in SW 6.4 mph 8.0 mph 91 % 0.0 in
09:47 10.3 °F 8.6 °F 1013.8 in SW 4.8 mph 8.0 mph 89 % 0.0 in
09:52 10.4 °F 8.7 °F 1013.8 in SSW 6.4 mph 8.0 mph 89 % 0.0 in
09:57 10.3 °F 8.6 °F 1013.8 in WSW 6.4 mph 8.0 mph 89 % 0.0 in
10:02 10.3 °F 8.6 °F 1013.8 in SW 8.0 mph 8.0 mph 89 % 0.0 in
10:12 10.3 °F 8.6 °F 1013.8 in SW 4.8 mph 9.7 mph 89 % 0.0 in
10:17 10.4 °F 8.7 °F 1013.8 in SW 1.6 mph 11.3 mph 89 % 0.0 in
10:22 10.4 °F 8.5 °F 1014.1 in SSW 4.8 mph 11.3 mph 88 % 0.0 in
10:32 10.6 °F 8.7 °F 1014.1 in SW 4.8 mph 11.3 mph 88 % 0.0 in
10:42 10.7 °F 8.6 °F 1014.1 in SW 8.0 mph 9.7 mph 87 % 0.0 in
10:47 10.8 °F 8.7 °F 1014.1 in SW 4.8 mph 11.3 mph 87 % 0.0 in
10:52 11.0 °F 8.9 °F 1014.1 in SSW 4.8 mph 11.3 mph 87 % 0.0 in
10:57 11.2 °F 8.9 °F 1014.1 in South 4.8 mph 11.3 mph 86 % 0.0 in
11:02 11.2 °F 8.9 °F 1014.1 in SSW 3.2 mph 11.3 mph 86 % 0.0 in
11:12 11.3 °F 8.7 °F 1014.1 in SSW 1.6 mph 14.5 mph 84 % 0.0 in
11:22 11.6 °F 8.8 °F 1014.1 in SSW 9.7 mph 12.9 mph 83 % 0.0 in
11:32 11.8 °F 8.8 °F 1014.1 in SW 4.8 mph 12.9 mph 82 % 0.0 in
11:42 12.2 °F 9.0 °F 1014.1 in SSW 4.8 mph 12.9 mph 81 % 0.0 in
11:47 12.2 °F 9.0 °F 1014.1 in SSW 3.2 mph 12.9 mph 81 % 0.0 in
11:52 12.3 °F 8.8 °F 1014.1 in SW 9.7 mph 12.9 mph 79 % 0.0 in
11:57 12.4 °F 9.0 °F 1013.8 in SSW 1.6 mph 12.9 mph 80 % 0.0 in
12:02 12.5 °F 9.0 °F 1013.8 in SW 1.6 mph 14.5 mph 79 % 0.0 in
12:12 12.6 °F 8.7 °F 1014.1 in SW 6.4 mph 14.5 mph 77 % 0.0 in
12:17 12.8 °F 8.9 °F 1014.1 in West 1.6 mph 12.9 mph 77 % 0.0 in
12:22 13.1 °F 9.2 °F 1013.8 in South 9.7 mph 12.9 mph 77 % 0.0 in
12:32 13.0 °F 8.7 °F 1013.8 in SW 4.8 mph 16.1 mph 75 % 0.0 in
12:42 13.1 °F 9.0 °F 1013.8 in SW 4.8 mph 16.1 mph 76 % 0.0 in
12:47 13.1 °F 8.8 °F 1013.8 in WSW 4.8 mph 14.5 mph 75 % 0.0 in
12:52 13.2 °F 9.1 °F 1013.8 in WNW 4.8 mph 14.5 mph 76 % 0.0 in
12:57 13.3 °F 9.2 °F 1013.8 in West 4.8 mph 11.3 mph 76 % 0.0 in
13:02 13.3 °F 9.0 °F 1013.8 in Calm   11.3 mph 75 % 0.0 in
13:12 13.2 °F 8.9 °F 1013.8 in West 3.2 mph 11.3 mph 75 % 0.0 in
13:17 12.3 °F 8.2 °F 1014.1 in WNW 17.7 mph 17.7 mph 76 % 0.0 in
13:22 10.6 °F 7.5 °F 1014.1 in West 17.7 mph 37.0 mph 81 % 0.3 in
13:32 9.4 °F 7.3 °F 1014.1 in West 3.2 mph 37.0 mph 87 % 0.5 in
13:42 9.4 °F 7.5 °F 1013.8 in Calm   22.5 mph 88 % 1.5 in
13:52 9.6 °F 7.7 °F 1013.8 in Calm   9.7 mph 88 % 1.8 in
13:57 9.6 °F 7.9 °F 1013.8 in West 1.6 mph 4.8 mph 89 % 2.0 in
14:02 9.7 °F 8.1 °F 1013.8 in Calm   4.8 mph 90 % 2.0 in
14:12 10.0 °F 8.3 °F 1013.8 in Calm   1.6 mph 89 % 2.3 in
14:17 10.2 °F 8.5 °F 1013.8 in Calm   1.6 mph 89 % 2.0 in
14:22 10.6 °F 8.7 °F 1013.8 in Calm     88 % 1.5 in
14:27 10.8 °F 8.9 °F 1013.4 in NNW 1.6 mph 4.8 mph 88 % 1.0 in
14:32 11.1 °F 8.8 °F 1013.4 in Calm   4.8 mph 86 % 0.8 in
14:37 11.4 °F 9.1 °F 1013.4 in Calm   4.8 mph 86 % 0.5 in
14:42 11.7 °F 9.3 °F 1013.4 in Calm   1.6 mph 85 % 0.5 in
14:47 11.8 °F 9.2 °F 1013.4 in Calm   1.6 mph 84 % 0.5 in
14:52 11.8 °F 8.6 °F 1013.4 in Calm   1.6 mph 81 % 0.3 in
14:57 11.9 °F 8.9 °F 1013.4 in Calm   1.6 mph 82 % 0.3 in
15:02 12.1 °F 9.1 °F 1013.4 in Calm   1.6 mph 82 % 0.0 in
15:07 12.2 °F 9.2 °F 1013.4 in Calm   1.6 mph 82 % 0.0 in
15:12 12.2 °F 8.9 °F 1013.4 in Calm   3.2 mph 80 % 0.0 in
15:17 12.4 °F 9.0 °F 1013.4 in Calm   3.2 mph 80 % 0.0 in
15:22 12.9 °F 9.7 °F 1013.1 in Calm   3.2 mph 81 % 0.0 in
15:32 13.3 °F 9.5 °F 1013.1 in ESE 1.6 mph 6.4 mph 78 % 0.0 in
15:37 13.7 °F 10.1 °F 1013.1 in Calm   6.4 mph 79 % 0.0 in
15:42 14.1 °F 10.3 °F 1013.1 in SSE 3.2 mph 6.4 mph 78 % 0.0 in
15:47 14.0 °F 9.4 °F 1013.1 in SW 4.8 mph 4.8 mph 74 % 0.0 in
15:52 13.7 °F 9.7 °F 1013.1 in WSW 1.6 mph 9.7 mph 77 % 0.0 in
15:57 13.7 °F 9.9 °F 1013.1 in East 1.6 mph 9.7 mph 78 % 0.0 in
16:02 13.7 °F 10.3 °F 1013.1 in SSW 6.4 mph 8.0 mph 80 % 0.0 in
16:12 13.5 °F 9.0 °F 1012.8 in Calm   11.3 mph 74 % 0.0 in
16:17 13.4 °F 9.6 °F 1012.8 in Calm   11.3 mph 78 % 0.0 in
16:22 13.5 °F 9.7 °F 1012.8 in SW 1.6 mph 11.3 mph 78 % 0.0 in
16:27 13.4 °F 9.8 °F 1012.8 in Calm   8.0 mph 79 % 0.0 in
16:32 13.4 °F 9.6 °F 1012.8 in SE 3.2 mph 8.0 mph 78 % 0.0 in
16:37 13.4 °F 9.4 °F 1012.8 in Calm   8.0 mph 77 % 0.0 in
16:42 13.7 °F 9.9 °F 1012.8 in Calm   4.8 mph 78 % 0.0 in
16:47 14.3 °F 10.5 °F 1012.8 in SSW 4.8 mph 4.8 mph 78 % 0.0 in
16:52 14.3 °F 9.5 °F 1012.8 in South 1.6 mph 6.4 mph 73 % 0.0 in
16:57 13.8 °F 9.4 °F 1012.8 in NE 1.6 mph 6.4 mph 75 % 0.0 in
17:02 13.5 °F 9.5 °F 1013.1 in NE 1.6 mph 6.4 mph 77 % 0.0 in
17:07 13.2 °F 9.8 °F 1013.1 in NW 1.6 mph 6.4 mph 80 % 0.0 in
17:12 12.4 °F 9.6 °F 1013.1 in WNW 4.8 mph 12.9 mph 83 % 0.5 in
17:17 11.6 °F 9.3 °F 1013.1 in NW 4.8 mph 16.1 mph 86 % 3.0 in
17:22 11.2 °F 8.9 °F 1012.8 in NE 1.6 mph 16.1 mph 86 % 6.1 in
17:27 11.1 °F 9.2 °F 1012.8 in Calm   16.1 mph 88 % 7.9 in
17:32 11.1 °F 9.4 °F 1013.1 in West 1.6 mph 6.4 mph 89 % 7.9 in
17:37 11.0 °F 9.4 °F 1013.1 in Calm   4.8 mph 90 % 7.9 in
17:42 11.0 °F 9.6 °F 1012.8 in ENE 3.2 mph 6.4 mph 91 % 7.9 in
17:47 11.0 °F 9.6 °F 1012.8 in NE 1.6 mph 6.4 mph 91 % 7.9 in
17:52 11.1 °F 9.8 °F 1012.8 in Calm   6.4 mph 92 % 7.9 in
17:57 11.2 °F 9.9 °F 1012.8 in NE 3.2 mph 6.4 mph 92 % 7.9 in
18:02 11.2 °F 9.9 °F 1012.8 in Calm   4.8 mph 92 % 7.9 in
18:07 11.1 °F 9.7 °F 1013.1 in Calm   4.8 mph 91 % 8.4 in
18:12 11.1 °F 9.8 °F 1013.1 in Calm   4.8 mph 92 % 7.9 in
18:17 11.0 °F 9.4 °F 1013.1 in Calm   4.8 mph 90 % 7.9 in
18:22 11.1 °F 9.5 °F 1012.8 in Calm   1.6 mph 90 % 4.3 in
18:32 11.2 °F 9.6 °F 1012.8 in Calm   1.6 mph 90 % 1.3 in
18:42 11.8 °F 10.0 °F 1012.8 in Calm     89 % 1.0 in
18:47 12.3 °F 10.0 °F 1012.8 in Calm     86 % 1.0 in
18:52 12.3 °F 10.0 °F 1012.8 in Calm   1.6 mph 86 % 1.0 in
18:57 12.2 °F 10.1 °F 1012.8 in Calm   1.6 mph 87 % 1.0 in
19:02 12.1 °F 10.2 °F 1012.8 in Calm   1.6 mph 88 % 0.8 in
19:07 12.0 °F 10.1 °F 1013.1 in Calm   1.6 mph 88 % 0.5 in
19:12 12.1 °F 10.2 °F 1012.8 in Calm   3.2 mph 88 % 0.3 in
19:17 12.1 °F 10.3 °F 1013.1 in Calm   3.2 mph 89 % 0.3 in
19:22 11.9 °F 10.0 °F 1013.1 in Calm   3.2 mph 88 % 0.0 in
19:27 11.8 °F 10.0 °F 1013.1 in Calm   1.6 mph 89 % 0.0 in
19:32 11.7 °F 9.8 °F 1013.1 in Calm   1.6 mph 88 % 0.0 in
19:37 11.6 °F 9.8 °F 1013.1 in Calm   1.6 mph 89 % 0.0 in
19:42 11.4 °F 9.7 °F 1013.1 in Calm   1.6 mph 89 % 0.0 in
19:47 11.3 °F 9.6 °F 1013.1 in Calm   1.6 mph 89 % 0.0 in
19:52 11.1 °F 9.4 °F 1013.1 in Calm     89 % 0.0 in
19:57 10.9 °F 9.3 °F 1013.1 in Calm     90 % 0.0 in
20:02 10.8 °F 9.2 °F 1013.1 in Calm     90 % 0.0 in
20:07 10.7 °F 9.3 °F 1013.1 in Calm     91 % 0.0 in
20:12 10.5 °F 9.1 °F 1013.1 in Calm     91 % 0.0 in
20:17 10.4 °F 9.0 °F 1013.1 in Calm     91 % 0.0 in
20:22 10.3 °F 9.1 °F 1013.1 in Calm     92 % 0.0 in
20:27 10.2 °F 9.0 °F 1013.4 in Calm     92 % 0.0 in
20:32 10.0 °F 8.8 °F 1013.4 in Calm     92 % 0.0 in
20:37 9.8 °F 8.6 °F 1013.4 in Calm     92 % 0.0 in
20:42 9.7 °F 8.6 °F 1013.4 in Calm     93 % 0.0 in
20:47 9.7 °F 8.6 °F 1013.4 in Calm     93 % 0.0 in
20:52 9.7 °F 8.8 °F 1013.4 in Calm     94 % 0.0 in
20:57 9.6 °F 8.7 °F 1013.4 in Calm     94 % 0.0 in
21:02 9.6 °F 8.7 °F 1013.4 in Calm     94 % 0.0 in
21:07 9.5 °F 8.6 °F 1013.4 in Calm     94 % 0.0 in
21:12 9.5 °F 8.6 °F 1013.4 in Calm     94 % 0.0 in
21:17 9.4 °F 8.5 °F 1013.8 in Calm     94 % 0.0 in
21:22 9.4 °F 8.6 °F 1013.8 in Calm   1.6 mph 95 % 0.0 in
21:27 9.5 °F 8.7 °F 1013.8 in Calm   1.6 mph 95 % 0.0 in
21:32 9.4 °F 8.5 °F 1013.8 in Calm   1.6 mph 94 % 0.0 in
21:42 9.3 °F 8.5 °F 1013.8 in Calm     95 % 0.0 in
21:52 9.2 °F 8.4 °F 1013.8 in Calm   1.6 mph 95 % 0.0 in
21:57 9.2 °F 8.4 °F 1013.8 in Calm   1.6 mph 95 % 0.0 in
22:02 9.1 °F 8.3 °F 1013.4 in Calm   1.6 mph 95 % 0.0 in
22:07 9.1 °F 8.3 °F 1013.8 in Calm     95 % 0.0 in
22:12 9.0 °F 8.2 °F 1013.8 in Calm     95 % 0.0 in
22:17 8.9 °F 8.1 °F 1013.8 in Calm     95 % 0.0 in
22:22 8.9 °F 8.1 °F 1013.8 in Calm     95 % 0.0 in
22:32 9.0 °F 8.2 °F 1013.8 in Calm   1.6 mph 95 % 0.0 in
22:37 8.9 °F 8.1 °F 1013.8 in Calm   1.6 mph 95 % 0.0 in
22:42 8.8 °F 8.0 °F 1013.8 in Calm   1.6 mph 95 % 0.0 in
22:47 8.8 °F 8.0 °F 1013.8 in Calm   1.6 mph 95 % 0.0 in
22:52 8.9 °F 8.1 °F 1013.8 in Calm   1.6 mph 95 % 0.0 in
23:02 8.8 °F 8.0 °F 1013.8 in Calm   3.2 mph 95 % 0.0 in
23:07 8.8 °F 8.0 °F 1013.8 in Calm   3.2 mph 95 % 0.0 in
23:12 8.8 °F 8.0 °F 1013.8 in Calm   1.6 mph 95 % 0.0 in
23:22 8.8 °F 8.2 °F 1014.1 in Calm   3.2 mph 96 % 0.0 in
23:27 8.9 °F 8.3 °F 1014.1 in Calm   3.2 mph 96 % 0.0 in
23:32 8.9 °F 8.3 °F 1014.1 in Calm   3.2 mph 96 % 0.0 in
23:37 9.1 °F 8.5 °F 1014.1 in SW 1.6 mph 1.6 mph 96 % 0.0 in
23:42 9.2 °F 8.6 °F 1014.1 in SW 3.2 mph 3.2 mph 96 % 0.0 in
23:47 9.3 °F 8.5 °F 1014.1 in Calm   4.8 mph 95 % 0.0 in
23:52 9.3 °F 8.5 °F 1014.1 in Calm   4.8 mph 95 % 0.0 in
23:57 9.4 °F 8.6 °F 1014.1 in Calm   4.8 mph 95 % 0.0 in
Meteo18
Compliments of Weather Underground - 4 mb

Script developed by  Jim McMurry - jmcmurry@mwt.net Adapted for the template by  Wim van der Kuil - Leuven-Template.eu

You find our weather info also at:

European Weather Network

Weather Underground

Equipment we use:

Weather-station
Davis Vue

Weather-program
Meteobridge

Weather-server
Raspberry PI 2 B+

Provider
1 and 1

Davis Vue

Meteobridge

Raspberry PI 2 B+

1 and 1